sensor_id;sensor_type;location;lat;lon;timestamp;temperature;humidity
66312;HTU21D;53114;51.138;6.008;2022-07-10T00:00:39;15.62;93.95
66312;HTU21D;53114;51.138;6.008;2022-07-10T00:03:05;15.52;94.80
66312;HTU21D;53114;51.138;6.008;2022-07-10T00:05:32;15.43;95.66
66312;HTU21D;53114;51.138;6.008;2022-07-10T00:08:00;15.41;96.08
66312;HTU21D;53114;51.138;6.008;2022-07-10T00:10:26;15.32;96.76
66312;HTU21D;53114;51.138;6.008;2022-07-10T00:12:55;15.27;97.42
66312;HTU21D;53114;51.138;6.008;2022-07-10T00:15:21;15.27;97.75
66312;HTU21D;53114;51.138;6.008;2022-07-10T00:17:47;15.29;98.07
66312;HTU21D;53114;51.138;6.008;2022-07-10T00:20:14;15.36;97.97
66312;HTU21D;53114;51.138;6.008;2022-07-10T00:22:41;15.39;97.47
66312;HTU21D;53114;51.138;6.008;2022-07-10T00:25:10;15.42;97.68
66312;HTU21D;53114;51.138;6.008;2022-07-10T00:27:36;15.57;98.04
66312;HTU21D;53114;51.138;6.008;2022-07-10T00:30:03;15.68;97.76
66312;HTU21D;53114;51.138;6.008;2022-07-10T00:32:29;15.81;97.16
66312;HTU21D;53114;51.138;6.008;2022-07-10T00:34:55;15.91;96.97
66312;HTU21D;53114;51.138;6.008;2022-07-10T00:37:21;16.02;95.52
66312;HTU21D;53114;51.138;6.008;2022-07-10T00:39:48;16.16;94.83
66312;HTU21D;53114;51.138;6.008;2022-07-10T00:42:15;16.22;93.97
66312;HTU21D;53114;51.138;6.008;2022-07-10T00:44:42;16.29;93.20
66312;HTU21D;53114;51.138;6.008;2022-07-10T00:47:10;16.32;92.86
66312;HTU21D;53114;51.138;6.008;2022-07-10T00:49:38;16.33;92.75
66312;HTU21D;53114;51.138;6.008;2022-07-10T00:52:11;16.33;92.75
66312;HTU21D;53114;51.138;6.008;2022-07-10T00:54:41;16.34;92.79
66312;HTU21D;53114;51.138;6.008;2022-07-10T00:57:08;16.34;92.98
66312;HTU21D;53114;51.138;6.008;2022-07-10T00:59:35;16.27;93.91
66312;HTU21D;53114;51.138;6.008;2022-07-10T01:02:04;16.22;95.20
66312;HTU21D;53114;51.138;6.008;2022-07-10T01:04:31;16.15;95.50
66312;HTU21D;53114;51.138;6.008;2022-07-10T01:06:57;16.15;94.45
66312;HTU21D;53114;51.138;6.008;2022-07-10T01:09:23;16.11;94.90
66312;HTU21D;53114;51.138;6.008;2022-07-10T01:11:50;16.05;94.64
66312;HTU21D;53114;51.138;6.008;2022-07-10T01:14:16;16.11;94.47
66312;HTU21D;53114;51.138;6.008;2022-07-10T01:16:42;16.18;93.18
66312;HTU21D;53114;51.138;6.008;2022-07-10T01:19:09;16.27;92.59
66312;HTU21D;53114;51.138;6.008;2022-07-10T01:21:36;16.37;92.07
66312;HTU21D;53114;51.138;6.008;2022-07-10T01:24:08;16.44;92.01
66312;HTU21D;53114;51.138;6.008;2022-07-10T01:26:35;16.49;91.11
66312;HTU21D;53114;51.138;6.008;2022-07-10T01:29:04;16.54;89.76
66312;HTU21D;53114;51.138;6.008;2022-07-10T01:31:31;16.56;89.12
66312;HTU21D;53114;51.138;6.008;2022-07-10T01:34:00;16.57;88.80
66312;HTU21D;53114;51.138;6.008;2022-07-10T01:36:28;16.58;88.64
66312;HTU21D;53114;51.138;6.008;2022-07-10T01:38:56;16.60;88.62
66312;HTU21D;53114;51.138;6.008;2022-07-10T01:41:23;16.62;88.55
66312;HTU21D;53114;51.138;6.008;2022-07-10T01:43:50;16.66;88.31
66312;HTU21D;53114;51.138;6.008;2022-07-10T01:46:16;16.67;88.03
66312;HTU21D;53114;51.138;6.008;2022-07-10T01:48:42;16.69;87.77
66312;HTU21D;53114;51.138;6.008;2022-07-10T01:51:10;16.67;87.68
66312;HTU21D;53114;51.138;6.008;2022-07-10T01:53:37;16.67;87.78
66312;HTU21D;53114;51.138;6.008;2022-07-10T01:56:09;16.66;88.31
66312;HTU21D;53114;51.138;6.008;2022-07-10T01:58:36;16.69;88.78
66312;HTU21D;53114;51.138;6.008;2022-07-10T02:01:03;16.72;88.86
66312;HTU21D;53114;51.138;6.008;2022-07-10T02:03:29;16.74;88.58
66312;HTU21D;53114;51.138;6.008;2022-07-10T02:06:13;16.72;88.79
66312;HTU21D;53114;51.138;6.008;2022-07-10T02:08:39;16.64;89.28
66312;HTU21D;53114;51.138;6.008;2022-07-10T02:11:05;16.57;89.57
66312;HTU21D;53114;51.138;6.008;2022-07-10T02:13:31;16.45;90.82
66312;HTU21D;53114;51.138;6.008;2022-07-10T02:15:57;16.28;92.18
66312;HTU21D;53114;51.138;6.008;2022-07-10T02:18:24;16.19;93.29
66312;HTU21D;53114;51.138;6.008;2022-07-10T02:20:51;16.14;93.39
66312;HTU21D;53114;51.138;6.008;2022-07-10T02:23:17;16.12;93.56
66312;HTU21D;53114;51.138;6.008;2022-07-10T02:25:43;16.07;94.20
66312;HTU21D;53114;51.138;6.008;2022-07-10T02:28:09;16.04;94.48
66312;HTU21D;53114;51.138;6.008;2022-07-10T02:30:35;15.98;94.82
66312;HTU21D;53114;51.138;6.008;2022-07-10T02:33:02;15.96;95.41
66312;HTU21D;53114;51.138;6.008;2022-07-10T02:35:28;15.93;95.45
66312;HTU21D;53114;51.138;6.008;2022-07-10T02:37:54;15.90;95.42
66312;HTU21D;53114;51.138;6.008;2022-07-10T02:40:20;15.85;95.65
66312;HTU21D;53114;51.138;6.008;2022-07-10T02:42:46;15.75;95.88
66312;HTU21D;53114;51.138;6.008;2022-07-10T02:45:12;15.58;96.60
66312;HTU21D;53114;51.138;6.008;2022-07-10T02:47:38;15.41;97.42
66312;HTU21D;53114;51.138;6.008;2022-07-10T02:50:05;15.27;98.31
66312;HTU21D;53114;51.138;6.008;2022-07-10T02:52:31;15.16;99.48
66312;HTU21D;53114;51.138;6.008;2022-07-10T02:54:58;15.14;100.49
66312;HTU21D;53114;51.138;6.008;2022-07-10T02:57:24;15.12;101.24
66312;HTU21D;53114;51.138;6.008;2022-07-10T02:59:51;15.13;101.96
66312;HTU21D;53114;51.138;6.008;2022-07-10T03:02:17;15.18;101.42
66312;HTU21D;53114;51.138;6.008;2022-07-10T03:04:43;15.21;101.44
66312;HTU21D;53114;51.138;6.008;2022-07-10T03:07:09;15.22;101.33
66312;HTU21D;53114;51.138;6.008;2022-07-10T03:09:35;15.18;101.72
66312;HTU21D;53114;51.138;6.008;2022-07-10T03:12:00;15.16;102.05
66312;HTU21D;53114;51.138;6.008;2022-07-10T03:14:26;15.17;102.60
66312;HTU21D;53114;51.138;6.008;2022-07-10T03:16:52;15.21;102.77
66312;HTU21D;53114;51.138;6.008;2022-07-10T03:19:18;15.25;102.73
66312;HTU21D;53114;51.138;6.008;2022-07-10T03:21:44;15.27;102.26
66312;HTU21D;53114;51.138;6.008;2022-07-10T03:24:11;15.25;102.42
66312;HTU21D;53114;51.138;6.008;2022-07-10T03:26:37;15.25;102.54
66312;HTU21D;53114;51.138;6.008;2022-07-10T03:29:03;15.28;102.81
66312;HTU21D;53114;51.138;6.008;2022-07-10T03:31:29;15.29;102.68
66312;HTU21D;53114;51.138;6.008;2022-07-10T03:33:55;15.38;101.93
66312;HTU21D;53114;51.138;6.008;2022-07-10T03:36:21;15.49;100.86
66312;HTU21D;53114;51.138;6.008;2022-07-10T03:38:47;15.62;100.10
66312;HTU21D;53114;51.138;6.008;2022-07-10T03:41:14;15.74;99.11
66312;HTU21D;53114;51.138;6.008;2022-07-10T03:43:39;15.83;98.48
66312;HTU21D;53114;51.138;6.008;2022-07-10T03:46:05;15.88;97.35
66312;HTU21D;53114;51.138;6.008;2022-07-10T03:48:32;15.93;97.18
66312;HTU21D;53114;51.138;6.008;2022-07-10T03:50:58;15.95;96.75
66312;HTU21D;53114;51.138;6.008;2022-07-10T03:53:24;15.98;95.97
66312;HTU21D;53114;51.138;6.008;2022-07-10T03:55:50;16.02;95.55
66312;HTU21D;53114;51.138;6.008;2022-07-10T03:58:16;16.11;95.32
66312;HTU21D;53114;51.138;6.008;2022-07-10T04:00:42;16.15;95.13
66312;HTU21D;53114;51.138;6.008;2022-07-10T04:03:09;16.25;94.72
66312;HTU21D;53114;51.138;6.008;2022-07-10T04:05:35;16.33;94.40
66312;HTU21D;53114;51.138;6.008;2022-07-10T04:08:02;16.40;93.80
66312;HTU21D;53114;51.138;6.008;2022-07-10T04:10:30;16.43;92.95
66312;HTU21D;53114;51.138;6.008;2022-07-10T04:12:57;16.43;92.72
66312;HTU21D;53114;51.138;6.008;2022-07-10T04:15:23;16.40;92.37
66312;HTU21D;53114;51.138;6.008;2022-07-10T04:17:49;16.35;93.01
66312;HTU21D;53114;51.138;6.008;2022-07-10T04:20:16;16.30;93.75
66312;HTU21D;53114;51.138;6.008;2022-07-10T04:22:43;16.26;93.69
66312;HTU21D;53114;51.138;6.008;2022-07-10T04:25:09;16.24;93.89
66312;HTU21D;53114;51.138;6.008;2022-07-10T04:27:35;16.26;94.36
66312;HTU21D;53114;51.138;6.008;2022-07-10T04:30:03;16.25;94.25
66312;HTU21D;53114;51.138;6.008;2022-07-10T04:32:30;16.27;94.11
66312;HTU21D;53114;51.138;6.008;2022-07-10T04:34:56;16.30;94.34
66312;HTU21D;53114;51.138;6.008;2022-07-10T04:37:21;16.35;94.67
66312;HTU21D;53114;51.138;6.008;2022-07-10T04:39:48;16.37;95.94
66312;HTU21D;53114;51.138;6.008;2022-07-10T04:42:13;16.41;96.54
66312;HTU21D;53114;51.138;6.008;2022-07-10T04:44:40;16.48;96.39
66312;HTU21D;53114;51.138;6.008;2022-07-10T04:47:06;16.51;96.08
66312;HTU21D;53114;51.138;6.008;2022-07-10T04:49:33;16.55;95.81
66312;HTU21D;53114;51.138;6.008;2022-07-10T04:51:59;16.62;96.16
66312;HTU21D;53114;51.138;6.008;2022-07-10T04:54:26;16.71;94.85
66312;HTU21D;53114;51.138;6.008;2022-07-10T04:56:51;16.77;94.34
66312;HTU21D;53114;51.138;6.008;2022-07-10T04:59:17;16.84;93.85
66312;HTU21D;53114;51.138;6.008;2022-07-10T05:01:43;16.90;92.91
66312;HTU21D;53114;51.138;6.008;2022-07-10T05:04:10;16.90;92.21
66312;HTU21D;53114;51.138;6.008;2022-07-10T05:06:36;16.92;92.46
66312;HTU21D;53114;51.138;6.008;2022-07-10T05:09:03;16.96;92.01
66312;HTU21D;53114;51.138;6.008;2022-07-10T05:11:29;17.02;91.98
66312;HTU21D;53114;51.138;6.008;2022-07-10T05:13:55;17.05;91.56
66312;HTU21D;53114;51.138;6.008;2022-07-10T05:16:22;17.06;91.22
66312;HTU21D;53114;51.138;6.008;2022-07-10T05:18:48;17.13;91.15
66312;HTU21D;53114;51.138;6.008;2022-07-10T05:21:14;17.20;90.89
66312;HTU21D;53114;51.138;6.008;2022-07-10T05:23:40;17.22;90.03
66312;HTU21D;53114;51.138;6.008;2022-07-10T05:26:06;17.25;89.73
66312;HTU21D;53114;51.138;6.008;2022-07-10T05:28:32;17.26;89.43
66312;HTU21D;53114;51.138;6.008;2022-07-10T05:30:58;17.26;89.50
66312;HTU21D;53114;51.138;6.008;2022-07-10T05:33:24;17.28;89.76
66312;HTU21D;53114;51.138;6.008;2022-07-10T05:35:54;17.31;89.28
66312;HTU21D;53114;51.138;6.008;2022-07-10T05:38:20;17.34;89.58
66312;HTU21D;53114;51.138;6.008;2022-07-10T05:40:46;17.40;89.44
66312;HTU21D;53114;51.138;6.008;2022-07-10T05:43:15;17.44;89.41
66312;HTU21D;53114;51.138;6.008;2022-07-10T05:45:41;17.49;89.15
66312;HTU21D;53114;51.138;6.008;2022-07-10T05:48:10;17.55;89.58
66312;HTU21D;53114;51.138;6.008;2022-07-10T05:50:36;17.62;89.18
66312;HTU21D;53114;51.138;6.008;2022-07-10T05:53:02;17.65;89.02
66312;HTU21D;53114;51.138;6.008;2022-07-10T05:55:28;17.64;88.53
66312;HTU21D;53114;51.138;6.008;2022-07-10T05:57:56;17.66;88.86
66312;HTU21D;53114;51.138;6.008;2022-07-10T06:00:24;17.68;88.57
66312;HTU21D;53114;51.138;6.008;2022-07-10T06:02:50;17.72;88.17
66312;HTU21D;53114;51.138;6.008;2022-07-10T06:05:17;17.76;87.81
66312;HTU21D;53114;51.138;6.008;2022-07-10T06:07:43;17.80;87.02
66312;HTU21D;53114;51.138;6.008;2022-07-10T06:10:08;17.85;86.81
66312;HTU21D;53114;51.138;6.008;2022-07-10T06:12:35;17.94;86.16
66312;HTU21D;53114;51.138;6.008;2022-07-10T06:15:03;18.04;85.80
66312;HTU21D;53114;51.138;6.008;2022-07-10T06:17:29;18.17;84.88
66312;HTU21D;53114;51.138;6.008;2022-07-10T06:19:55;18.26;83.81
66312;HTU21D;53114;51.138;6.008;2022-07-10T06:22:21;18.32;83.45
66312;HTU21D;53114;51.138;6.008;2022-07-10T06:25:00;18.43;83.01
66312;HTU21D;53114;51.138;6.008;2022-07-10T06:27:27;18.55;82.07
66312;HTU21D;53114;51.138;6.008;2022-07-10T06:29:53;18.69;81.75
66312;HTU21D;53114;51.138;6.008;2022-07-10T06:32:19;18.84;80.85
66312;HTU21D;53114;51.138;6.008;2022-07-10T06:34:45;18.95;79.59
66312;HTU21D;53114;51.138;6.008;2022-07-10T06:37:11;19.00;79.56
66312;HTU21D;53114;51.138;6.008;2022-07-10T06:39:37;19.06;79.04
66312;HTU21D;53114;51.138;6.008;2022-07-10T06:42:04;19.03;78.18
66312;HTU21D;53114;51.138;6.008;2022-07-10T06:44:37;19.00;78.61
66312;HTU21D;53114;51.138;6.008;2022-07-10T06:47:04;19.00;78.66
66312;HTU21D;53114;51.138;6.008;2022-07-10T06:49:50;18.98;78.92
66312;HTU21D;53114;51.138;6.008;2022-07-10T06:52:17;18.97;78.79
66312;HTU21D;53114;51.138;6.008;2022-07-10T06:54:43;19.00;78.76
66312;HTU21D;53114;51.138;6.008;2022-07-10T06:57:10;19.03;78.71
66312;HTU21D;53114;51.138;6.008;2022-07-10T06:59:36;19.06;78.39
66312;HTU21D;53114;51.138;6.008;2022-07-10T07:02:03;19.09;77.76
66312;HTU21D;53114;51.138;6.008;2022-07-10T07:04:29;19.12;77.47
66312;HTU21D;53114;51.138;6.008;2022-07-10T07:06:55;19.10;77.01
66312;HTU21D;53114;51.138;6.008;2022-07-10T07:09:21;19.03;77.56
66312;HTU21D;53114;51.138;6.008;2022-07-10T07:11:47;19.05;77.68
66312;HTU21D;53114;51.138;6.008;2022-07-10T07:14:13;19.07;77.76
66312;HTU21D;53114;51.138;6.008;2022-07-10T07:16:39;19.16;78.01
66312;HTU21D;53114;51.138;6.008;2022-07-10T07:19:10;19.21;76.55
66312;HTU21D;53114;51.138;6.008;2022-07-10T07:21:37;19.29;76.89
66312;HTU21D;53114;51.138;6.008;2022-07-10T07:24:22;19.42;76.33
66312;HTU21D;53114;51.138;6.008;2022-07-10T07:26:48;19.43;75.38
66312;HTU21D;53114;51.138;6.008;2022-07-10T07:29:16;19.46;74.99
66312;HTU21D;53114;51.138;6.008;2022-07-10T07:31:43;19.53;74.83
66312;HTU21D;53114;51.138;6.008;2022-07-10T07:34:09;19.68;74.12
66312;HTU21D;53114;51.138;6.008;2022-07-10T07:36:36;19.85;72.66
66312;HTU21D;53114;51.138;6.008;2022-07-10T07:39:03;19.99;72.06
66312;HTU21D;53114;51.138;6.008;2022-07-10T07:41:30;20.09;71.41
66312;HTU21D;53114;51.138;6.008;2022-07-10T07:43:58;20.24;69.97
66312;HTU21D;53114;51.138;6.008;2022-07-10T07:46:26;20.35;68.79
66312;HTU21D;53114;51.138;6.008;2022-07-10T07:48:53;20.58;67.75
66312;HTU21D;53114;51.138;6.008;2022-07-10T07:51:22;20.88;65.77
66312;HTU21D;53114;51.138;6.008;2022-07-10T07:53:48;20.92;65.43
66312;HTU21D;53114;51.138;6.008;2022-07-10T07:56:14;20.91;66.01
66312;HTU21D;53114;51.138;6.008;2022-07-10T07:58:40;20.85;67.08
66312;HTU21D;53114;51.138;6.008;2022-07-10T08:01:06;20.95;66.55
66312;HTU21D;53114;51.138;6.008;2022-07-10T08:03:34;21.06;65.47
66312;HTU21D;53114;51.138;6.008;2022-07-10T08:06:01;21.15;64.88
66312;HTU21D;53114;51.138;6.008;2022-07-10T08:08:27;21.21;66.02
66312;HTU21D;53114;51.138;6.008;2022-07-10T08:10:53;21.23;65.33
66312;HTU21D;53114;51.138;6.008;2022-07-10T08:13:24;21.15;65.38
66312;HTU21D;53114;51.138;6.008;2022-07-10T08:15:58;21.01;65.60
66312;HTU21D;53114;51.138;6.008;2022-07-10T08:18:24;20.93;66.40
66312;HTU21D;53114;51.138;6.008;2022-07-10T08:20:53;20.96;66.53
66312;HTU21D;53114;51.138;6.008;2022-07-10T08:23:21;21.11;66.13
66312;HTU21D;53114;51.138;6.008;2022-07-10T08:25:47;21.37;66.43
66312;HTU21D;53114;51.138;6.008;2022-07-10T08:28:13;21.79;64.37
66312;HTU21D;53114;51.138;6.008;2022-07-10T08:30:39;22.03;61.81
66312;HTU21D;53114;51.138;6.008;2022-07-10T08:33:08;21.93;61.65
66312;HTU21D;53114;51.138;6.008;2022-07-10T08:35:35;21.70;62.26
66312;HTU21D;53114;51.138;6.008;2022-07-10T08:38:01;21.53;63.82
66312;HTU21D;53114;51.138;6.008;2022-07-10T08:40:35;21.30;64.53
66312;HTU21D;53114;51.138;6.008;2022-07-10T08:43:03;21.06;65.11
66312;HTU21D;53114;51.138;6.008;2022-07-10T08:45:31;20.83;66.37
66312;HTU21D;53114;51.138;6.008;2022-07-10T08:48:03;20.64;67.98
66312;HTU21D;53114;51.138;6.008;2022-07-10T08:50:44;20.55;68.93
66312;HTU21D;53114;51.138;6.008;2022-07-10T08:53:16;20.49;69.54
66312;HTU21D;53114;51.138;6.008;2022-07-10T08:55:48;20.45;70.09
66312;HTU21D;53114;51.138;6.008;2022-07-10T08:58:15;20.43;70.11
66312;HTU21D;53114;51.138;6.008;2022-07-10T09:00:42;20.39;70.10
66312;HTU21D;53114;51.138;6.008;2022-07-10T09:03:11;20.34;70.61
66312;HTU21D;53114;51.138;6.008;2022-07-10T09:05:37;20.33;70.91
66312;HTU21D;53114;51.138;6.008;2022-07-10T09:08:04;20.33;72.20
66312;HTU21D;53114;51.138;6.008;2022-07-10T09:10:30;20.35;73.91
66312;HTU21D;53114;51.138;6.008;2022-07-10T09:13:00;20.37;73.25
66312;HTU21D;53114;51.138;6.008;2022-07-10T09:15:29;20.47;72.77
66312;HTU21D;53114;51.138;6.008;2022-07-10T09:18:03;20.55;71.69
66312;HTU21D;53114;51.138;6.008;2022-07-10T09:23:15;20.51;70.80
66312;HTU21D;53114;51.138;6.008;2022-07-10T09:25:47;20.51;71.61
66312;HTU21D;53114;51.138;6.008;2022-07-10T09:28:17;20.53;71.61
66312;HTU21D;53114;51.138;6.008;2022-07-10T09:30:44;20.48;71.78
66312;HTU21D;53114;51.138;6.008;2022-07-10T09:33:23;20.40;72.08
66312;HTU21D;53114;51.138;6.008;2022-07-10T09:36:06;20.40;72.59
66312;HTU21D;53114;51.138;6.008;2022-07-10T09:41:16;20.50;72.25
66312;HTU21D;53114;51.138;6.008;2022-07-10T09:43:50;20.59;72.13
66312;HTU21D;53114;51.138;6.008;2022-07-10T09:46:19;20.57;71.71
66312;HTU21D;53114;51.138;6.008;2022-07-10T09:49:09;20.46;71.84
66312;HTU21D;53114;51.138;6.008;2022-07-10T09:51:43;20.41;72.77
66312;HTU21D;53114;51.138;6.008;2022-07-10T09:54:10;20.35;72.96
66312;HTU21D;53114;51.138;6.008;2022-07-10T09:56:45;20.37;73.50
66312;HTU21D;53114;51.138;6.008;2022-07-10T09:59:17;20.45;73.57
66312;HTU21D;53114;51.138;6.008;2022-07-10T10:04:16;20.60;72.52
66312;HTU21D;53114;51.138;6.008;2022-07-10T10:06:43;20.88;72.06
66312;HTU21D;53114;51.138;6.008;2022-07-10T10:12:16;21.93;67.59
66312;HTU21D;53114;51.138;6.008;2022-07-10T10:14:40;22.62;63.88
66312;HTU21D;53114;51.138;6.008;2022-07-10T10:17:08;22.68;62.57
66312;HTU21D;53114;51.138;6.008;2022-07-10T10:19:38;22.51;62.31
66312;HTU21D;53114;51.138;6.008;2022-07-10T10:22:24;22.26;62.90
66312;HTU21D;53114;51.138;6.008;2022-07-10T10:24:52;22.07;63.76
66312;HTU21D;53114;51.138;6.008;2022-07-10T10:27:20;21.88;64.56
66312;HTU21D;53114;51.138;6.008;2022-07-10T10:29:48;21.68;65.39
66312;HTU21D;53114;51.138;6.008;2022-07-10T10:32:15;21.57;66.12
66312;HTU21D;53114;51.138;6.008;2022-07-10T10:34:43;21.46;67.72
66312;HTU21D;53114;51.138;6.008;2022-07-10T10:37:34;21.43;67.60
66312;HTU21D;53114;51.138;6.008;2022-07-10T10:40:06;21.53;68.02
66312;HTU21D;53114;51.138;6.008;2022-07-10T10:42:43;21.69;66.82
66312;HTU21D;53114;51.138;6.008;2022-07-10T10:45:25;21.90;66.18
66312;HTU21D;53114;51.138;6.008;2022-07-10T10:48:01;22.14;65.56
66312;HTU21D;53114;51.138;6.008;2022-07-10T10:50:42;22.55;65.30
66312;HTU21D;53114;51.138;6.008;2022-07-10T10:58:45;23.39;59.69
66312;HTU21D;53114;51.138;6.008;2022-07-10T11:06:47;25.48;50.21
66312;HTU21D;53114;51.138;6.008;2022-07-10T11:09:42;25.53;51.66
66312;HTU21D;53114;51.138;6.008;2022-07-10T11:12:10;26.02;49.48
66312;HTU21D;53114;51.138;6.008;2022-07-10T11:14:46;25.79;49.01
66312;HTU21D;53114;51.138;6.008;2022-07-10T11:17:14;25.14;51.01
66312;HTU21D;53114;51.138;6.008;2022-07-10T11:19:40;24.55;53.25
66312;HTU21D;53114;51.138;6.008;2022-07-10T11:25:03;23.70;56.52
66312;HTU21D;53114;51.138;6.008;2022-07-10T11:28:03;23.59;57.39
66312;HTU21D;53114;51.138;6.008;2022-07-10T11:30:53;23.66;57.71
66312;HTU21D;53114;51.138;6.008;2022-07-10T11:33:20;23.87;57.19
66312;HTU21D;53114;51.138;6.008;2022-07-10T11:35:51;23.98;56.42
66312;HTU21D;53114;51.138;6.008;2022-07-10T11:38:22;23.88;56.58
66312;HTU21D;53114;51.138;6.008;2022-07-10T11:40:48;23.77;57.07
66312;HTU21D;53114;51.138;6.008;2022-07-10T11:43:15;23.68;58.14
66312;HTU21D;53114;51.138;6.008;2022-07-10T11:45:44;23.60;58.67
66312;HTU21D;53114;51.138;6.008;2022-07-10T11:48:17;23.50;59.03
66312;HTU21D;53114;51.138;6.008;2022-07-10T11:50:44;23.47;58.86
66312;HTU21D;53114;51.138;6.008;2022-07-10T11:53:10;23.53;59.20
66312;HTU21D;53114;51.138;6.008;2022-07-10T11:55:37;23.60;58.28
66312;HTU21D;53114;51.138;6.008;2022-07-10T11:58:17;23.59;57.29
66312;HTU21D;53114;51.138;6.008;2022-07-10T12:00:43;23.45;57.70
66312;HTU21D;53114;51.138;6.008;2022-07-10T12:03:20;23.41;58.48
66312;HTU21D;53114;51.138;6.008;2022-07-10T12:05:47;23.50;57.68
66312;HTU21D;53114;51.138;6.008;2022-07-10T12:08:16;23.73;57.28
66312;HTU21D;53114;51.138;6.008;2022-07-10T12:10:42;24.05;56.42
66312;HTU21D;53114;51.138;6.008;2022-07-10T12:13:10;24.30;55.67
66312;HTU21D;53114;51.138;6.008;2022-07-10T12:15:45;24.48;55.10
66312;HTU21D;53114;51.138;6.008;2022-07-10T12:18:21;24.62;54.98
66312;HTU21D;53114;51.138;6.008;2022-07-10T12:20:52;24.78;53.57
66312;HTU21D;53114;51.138;6.008;2022-07-10T12:23:19;24.92;52.92
66312;HTU21D;53114;51.138;6.008;2022-07-10T12:25:48;24.80;53.10
66312;HTU21D;53114;51.138;6.008;2022-07-10T12:28:15;24.84;53.89
66312;HTU21D;53114;51.138;6.008;2022-07-10T12:30:46;25.16;52.85
66312;HTU21D;53114;51.138;6.008;2022-07-10T12:33:14;25.44;52.49
66312;HTU21D;53114;51.138;6.008;2022-07-10T12:38:18;26.21;50.27
66312;HTU21D;53114;51.138;6.008;2022-07-10T12:40:44;26.43;48.74
66312;HTU21D;53114;51.138;6.008;2022-07-10T12:43:10;26.70;47.76
66312;HTU21D;53114;51.138;6.008;2022-07-10T12:45:38;26.75;46.40
66312;HTU21D;53114;51.138;6.008;2022-07-10T12:48:04;26.51;47.15
66312;HTU21D;53114;51.138;6.008;2022-07-10T12:50:34;26.43;47.87
66312;HTU21D;53114;51.138;6.008;2022-07-10T12:53:12;26.50;47.76
66312;HTU21D;53114;51.138;6.008;2022-07-10T12:55:39;26.49;47.91
66312;HTU21D;53114;51.138;6.008;2022-07-10T12:58:10;26.51;47.97
66312;HTU21D;53114;51.138;6.008;2022-07-10T13:00:46;26.30;47.83
66312;HTU21D;53114;51.138;6.008;2022-07-10T13:03:20;25.93;47.99
66312;HTU21D;53114;51.138;6.008;2022-07-10T13:05:49;25.60;49.37
66312;HTU21D;53114;51.138;6.008;2022-07-10T13:08:21;25.27;50.89
66312;HTU21D;53114;51.138;6.008;2022-07-10T13:10:52;24.94;51.64
66312;HTU21D;53114;51.138;6.008;2022-07-10T13:13:19;24.77;53.46
66312;HTU21D;53114;51.138;6.008;2022-07-10T13:15:46;24.89;53.25
66312;HTU21D;53114;51.138;6.008;2022-07-10T13:18:22;24.98;52.36
66312;HTU21D;53114;51.138;6.008;2022-07-10T13:21:22;24.85;52.90
66312;HTU21D;53114;51.138;6.008;2022-07-10T13:28:04;24.29;55.16
66312;HTU21D;53114;51.138;6.008;2022-07-10T13:30:50;24.03;56.30
66312;HTU21D;53114;51.138;6.008;2022-07-10T13:37:52;23.65;58.34
66312;HTU21D;53114;51.138;6.008;2022-07-10T13:40:36;23.82;58.31
66312;HTU21D;53114;51.138;6.008;2022-07-10T13:43:13;24.17;56.78
66312;HTU21D;53114;51.138;6.008;2022-07-10T13:46:00;24.38;55.70
66312;HTU21D;53114;51.138;6.008;2022-07-10T13:49:21;24.55;54.78
66312;HTU21D;53114;51.138;6.008;2022-07-10T13:56:22;24.50;54.52
66312;HTU21D;53114;51.138;6.008;2022-07-10T14:00:18;24.19;55.96
66312;HTU21D;53114;51.138;6.008;2022-07-10T14:03:14;23.80;57.32
66312;HTU21D;53114;51.138;6.008;2022-07-10T14:06:36;23.58;58.91
66312;HTU21D;53114;51.138;6.008;2022-07-10T14:09:42;23.62;60.18
66312;HTU21D;53114;51.138;6.008;2022-07-10T14:12:13;23.95;59.32
66312;HTU21D;53114;51.138;6.008;2022-07-10T14:15:04;24.36;57.77
66312;HTU21D;53114;51.138;6.008;2022-07-10T14:17:54;24.69;55.92
66312;HTU21D;53114;51.138;6.008;2022-07-10T14:21:10;24.84;55.21
66312;HTU21D;53114;51.138;6.008;2022-07-10T14:24:20;24.69;55.40
66312;HTU21D;53114;51.138;6.008;2022-07-10T14:26:58;24.40;56.47
66312;HTU21D;53114;51.138;6.008;2022-07-10T14:29:42;24.18;57.35
66312;HTU21D;53114;51.138;6.008;2022-07-10T14:32:46;24.09;57.96
66312;HTU21D;53114;51.138;6.008;2022-07-10T14:39:56;24.31;59.56
66312;HTU21D;53114;51.138;6.008;2022-07-10T14:42:31;24.48;57.76
66312;HTU21D;53114;51.138;6.008;2022-07-10T14:44:57;24.64;56.90
66312;HTU21D;53114;51.138;6.008;2022-07-10T14:47:39;24.79;56.09
66312;HTU21D;53114;51.138;6.008;2022-07-10T14:50:11;25.02;55.76
66312;HTU21D;53114;51.138;6.008;2022-07-10T14:53:06;25.19;54.58
66312;HTU21D;53114;51.138;6.008;2022-07-10T14:55:33;25.28;54.07
66312;HTU21D;53114;51.138;6.008;2022-07-10T14:58:06;25.29;53.64
66312;HTU21D;53114;51.138;6.008;2022-07-10T15:00:36;25.32;54.20
66312;HTU21D;53114;51.138;6.008;2022-07-10T15:03:09;25.40;53.97
66312;HTU21D;53114;51.138;6.008;2022-07-10T15:06:02;25.40;53.26
66312;HTU21D;53114;51.138;6.008;2022-07-10T15:08:28;25.30;53.71
66312;HTU21D;53114;51.138;6.008;2022-07-10T15:11:06;25.10;54.49
66312;HTU21D;53114;51.138;6.008;2022-07-10T15:13:36;24.89;54.80
66312;HTU21D;53114;51.138;6.008;2022-07-10T15:16:08;24.78;55.78
66312;HTU21D;53114;51.138;6.008;2022-07-10T15:19:04;24.72;55.87
66312;HTU21D;53114;51.138;6.008;2022-07-10T15:21:39;24.58;56.31
66312;HTU21D;53114;51.138;6.008;2022-07-10T15:24:06;24.49;56.81
66312;HTU21D;53114;51.138;6.008;2022-07-10T15:26:44;24.45;56.99
66312;HTU21D;53114;51.138;6.008;2022-07-10T15:29:13;24.48;56.91
66312;HTU21D;53114;51.138;6.008;2022-07-10T15:34:40;24.39;57.19
66312;HTU21D;53114;51.138;6.008;2022-07-10T15:37:31;24.30;58.42
66312;HTU21D;53114;51.138;6.008;2022-07-10T15:39:57;24.19;58.48
66312;HTU21D;53114;51.138;6.008;2022-07-10T15:42:23;24.11;58.90
66312;HTU21D;53114;51.138;6.008;2022-07-10T15:44:49;24.02;59.07
66312;HTU21D;53114;51.138;6.008;2022-07-10T15:47:27;23.96;59.44
66312;HTU21D;53114;51.138;6.008;2022-07-10T15:49:56;24.01;59.58
66312;HTU21D;53114;51.138;6.008;2022-07-10T15:52:25;24.10;59.32
66312;HTU21D;53114;51.138;6.008;2022-07-10T15:54:51;24.18;59.66
66312;HTU21D;53114;51.138;6.008;2022-07-10T15:57:19;24.18;60.35
66312;HTU21D;53114;51.138;6.008;2022-07-10T15:59:48;24.20;59.77
66312;HTU21D;53114;51.138;6.008;2022-07-10T16:02:14;24.18;58.90
66312;HTU21D;53114;51.138;6.008;2022-07-10T16:04:39;24.13;59.52
66312;HTU21D;53114;51.138;6.008;2022-07-10T16:07:06;24.11;59.53
66312;HTU21D;53114;51.138;6.008;2022-07-10T16:09:34;24.10;59.81
66312;HTU21D;53114;51.138;6.008;2022-07-10T16:12:00;24.15;59.85
66312;HTU21D;53114;51.138;6.008;2022-07-10T16:14:26;24.23;60.66
66312;HTU21D;53114;51.138;6.008;2022-07-10T16:16:52;24.23;59.70
66312;HTU21D;53114;51.138;6.008;2022-07-10T16:19:18;24.30;59.44
66312;HTU21D;53114;51.138;6.008;2022-07-10T16:21:44;24.41;59.34